TAP1921 LPPT-LPPR
Flight info
| Callsign | TAP1921 |
|---|---|
| Flight time | 0h 29m |
| Altitude | 22000 |
| Route | IXIDA DCT ABLEG |
| Aircraft | A321/M-SDE3FGHIRWY/LB1 |
Departure
| Time | 2026-05-04 16:58 |
|---|---|
| Airport | Lisbon Humberto Delgado Airport (LPPT) |
Arrival
| Time | 2026-05-04 17:27 |
|---|---|
| Airport | Francisco de Sá Carneiro Airport (LPPR) |
| Time | Latitude | Longitude | Altitude | Speed | Heading |
|---|---|---|---|---|---|
| 2026-05-04 16:41 | 38.76937 | -9.13070 | 334 ft | 0 kts | 78° |
| 2026-05-04 16:50 | 38.76934 | -9.13084 | 333 ft | 4 kts | 82° |
| 2026-05-04 16:51 | 38.76934 | -9.13128 | 334 ft | 0 kts | 107° |
| 2026-05-04 16:52 | 38.76936 | -9.13142 | 335 ft | 1 kts | 86° |
| 2026-05-04 16:52 | 38.76936 | -9.13153 | 335 ft | 1 kts | 152° |
| 2026-05-04 16:53 | 38.76946 | -9.13158 | 339 ft | 0 kts | 161° |
| 2026-05-04 16:53 | 38.76831 | -9.13126 | 335 ft | 12 kts | 174° |
| 2026-05-04 16:54 | 38.76779 | -9.13177 | 339 ft | 10 kts | 253° |
| 2026-05-04 16:55 | 38.76612 | -9.13761 | 353 ft | 29 kts | 258° |
| 2026-05-04 16:55 | 38.76577 | -9.14184 | 350 ft | 13 kts | 299° |
| 2026-05-04 16:56 | 38.76607 | -9.14284 | 335 ft | 0 kts | 289° |
| 2026-05-04 16:56 | 38.76689 | -9.14364 | 338 ft | 14 kts | 15° |
| 2026-05-04 16:57 | 38.76709 | -9.14355 | 335 ft | 0 kts | 21° |
| 2026-05-04 16:57 | 38.76922 | -9.14244 | 350 ft | 76 kts | 22° |
| 2026-05-04 16:58 | 38.79536 | -9.12754 | 1702 ft | 159 kts | 16° |
| 2026-05-04 16:58 | 38.80646 | -9.12182 | 2266 ft | 184 kts | 19° |
| 2026-05-04 16:59 | 38.83238 | -9.10457 | 3533 ft | 236 kts | 27° |
| 2026-05-04 17:00 | 38.89472 | -9.05587 | 7372 ft | 278 kts | 32° |
| 2026-05-04 17:00 | 38.93953 | -9.00439 | 10339 ft | 300 kts | 38° |
| 2026-05-04 17:01 | 38.97274 | -8.96587 | 11334 ft | 338 kts | 38° |
| 2026-05-04 17:01 | 39.00826 | -8.92434 | 13017 ft | 351 kts | 38° |
| 2026-05-04 17:02 | 39.04500 | -8.88132 | 14680 ft | 363 kts | 38° |
| 2026-05-04 17:02 | 39.08285 | -8.83692 | 16236 ft | 374 kts | 38° |
| 2026-05-04 17:03 | 39.10219 | -8.81424 | 16990 ft | 379 kts | 37° |
| 2026-05-04 17:03 | 39.12233 | -8.79203 | 17730 ft | 381 kts | 29° |
| 2026-05-04 17:03 | 39.17131 | -8.77183 | 19073 ft | 370 kts | 358° |
| 2026-05-04 17:04 | 39.22316 | -8.76743 | 20443 ft | 377 kts | 357° |
| 2026-05-04 17:04 | 39.27596 | -8.76311 | 21759 ft | 383 kts | 356° |
| 2026-05-04 17:05 | 39.32999 | -8.75859 | 22084 ft | 402 kts | 356° |
| 2026-05-04 17:05 | 39.38841 | -8.75368 | 22088 ft | 438 kts | 357° |
| 2026-05-04 17:06 | 39.45139 | -8.74827 | 22082 ft | 465 kts | 358° |
| 2026-05-04 17:06 | 39.48380 | -8.74537 | 22115 ft | 469 kts | 358° |
| 2026-05-04 17:07 | 39.54900 | -8.73939 | 22095 ft | 471 kts | 358° |
| 2026-05-04 17:07 | 39.57067 | -8.73743 | 22095 ft | 471 kts | 358° |
| 2026-05-04 17:07 | 39.61433 | -8.73357 | 22098 ft | 470 kts | 358° |
| 2026-05-04 17:07 | 39.64697 | -8.73074 | 22102 ft | 470 kts | 358° |
| 2026-05-04 17:08 | 39.67963 | -8.72796 | 22103 ft | 470 kts | 358° |
| 2026-05-04 17:08 | 39.74490 | -8.72235 | 22135 ft | 470 kts | 358° |
| 2026-05-04 17:08 | 39.77754 | -8.71948 | 22081 ft | 470 kts | 358° |
| 2026-05-04 17:09 | 39.81012 | -8.71659 | 22105 ft | 470 kts | 358° |
| 2026-05-04 17:09 | 39.84285 | -8.71370 | 22110 ft | 471 kts | 358° |
| 2026-05-04 17:09 | 39.87560 | -8.71085 | 22108 ft | 472 kts | 358° |
| 2026-05-04 17:10 | 39.94105 | -8.70512 | 22132 ft | 471 kts | 358° |
| 2026-05-04 17:10 | 40.03909 | -8.69645 | 22095 ft | 470 kts | 358° |
| 2026-05-04 17:11 | 40.07170 | -8.69358 | 22100 ft | 470 kts | 358° |
| 2026-05-04 17:11 | 40.10437 | -8.69073 | 22096 ft | 470 kts | 358° |
| 2026-05-04 17:11 | 40.16589 | -8.68491 | 22101 ft | 400 kts | 357° |
| 2026-05-04 17:12 | 40.19263 | -8.68218 | 21201 ft | 376 kts | 357° |
| 2026-05-04 17:12 | 40.24483 | -8.67772 | 19497 ft | 379 kts | 357° |
| 2026-05-04 17:13 | 40.32458 | -8.67118 | 19086 ft | 383 kts | 358° |
| 2026-05-04 17:14 | 40.40434 | -8.66406 | 19097 ft | 383 kts | 358° |
| 2026-05-04 17:14 | 40.43092 | -8.66168 | 19097 ft | 383 kts | 358° |
| 2026-05-04 17:14 | 40.48286 | -8.65692 | 18338 ft | 356 kts | 358° |
| 2026-05-04 17:15 | 40.50743 | -8.65461 | 16701 ft | 354 kts | 359° |
| 2026-05-04 17:15 | 40.55665 | -8.65025 | 14855 ft | 338 kts | 359° |
| 2026-05-04 17:16 | 40.60232 | -8.64609 | 12157 ft | 330 kts | 0° |
| 2026-05-04 17:16 | 40.67237 | -8.63997 | 10270 ft | 344 kts | 1° |
| 2026-05-04 17:17 | 40.69554 | -8.63788 | 10107 ft | 316 kts | 1° |
| 2026-05-04 17:17 | 40.75592 | -8.63229 | 9724 ft | 273 kts | 1° |
| 2026-05-04 17:18 | 40.77464 | -8.63060 | 9260 ft | 269 kts | 0° |
| 2026-05-04 17:18 | 40.81142 | -8.62733 | 8504 ft | 257 kts | 359° |
| 2026-05-04 17:19 | 40.84668 | -8.62416 | 7734 ft | 251 kts | 359° |
| 2026-05-04 17:19 | 40.88133 | -8.62109 | 7076 ft | 248 kts | 359° |
| 2026-05-04 17:20 | 40.91560 | -8.61801 | 6490 ft | 244 kts | 1° |
| 2026-05-04 17:20 | 40.94892 | -8.61500 | 6055 ft | 241 kts | 358° |
| 2026-05-04 17:20 | 40.96528 | -8.61348 | 5844 ft | 229 kts | 358° |
| 2026-05-04 17:21 | 40.99543 | -8.61469 | 5040 ft | 211 kts | 345° |
| 2026-05-04 17:21 | 41.02390 | -8.62237 | 4330 ft | 207 kts | 346° |
| 2026-05-04 17:22 | 41.03810 | -8.62616 | 4035 ft | 208 kts | 346° |
| 2026-05-04 17:22 | 41.05215 | -8.62991 | 3893 ft | 199 kts | 345° |
| 2026-05-04 17:23 | 41.08938 | -8.63963 | 3089 ft | 177 kts | 345° |
| 2026-05-04 17:23 | 41.10126 | -8.64272 | 2851 ft | 169 kts | 345° |
| 2026-05-04 17:23 | 41.12312 | -8.64840 | 2434 ft | 156 kts | 343° |
| 2026-05-04 17:24 | 41.13378 | -8.65119 | 2221 ft | 154 kts | 343° |
| 2026-05-04 17:24 | 41.16162 | -8.65851 | 1677 ft | 148 kts | 343° |
| 2026-05-04 17:25 | 41.17109 | -8.66096 | 1482 ft | 131 kts | 345° |
| 2026-05-04 17:25 | 41.18768 | -8.66530 | 1170 ft | 119 kts | 345° |
| 2026-05-04 17:26 | 41.20379 | -8.66949 | 926 ft | 120 kts | 346° |
| 2026-05-04 17:26 | 41.22805 | -8.67599 | 397 ft | 117 kts | 346° |
| 2026-05-04 17:27 | 41.24180 | -8.67964 | 218 ft | 44 kts | 349° |
| 2026-05-04 17:27 | 41.24827 | -8.68147 | 203 ft | 29 kts | 354° |
| 2026-05-04 17:28 | 41.25259 | -8.68101 | 180 ft | 24 kts | 32° |
| 2026-05-04 17:29 | 41.25281 | -8.68029 | 181 ft | 13 kts | 174° |
| 2026-05-04 17:29 | 41.24890 | -8.67909 | 204 ft | 29 kts | 161° |
| 2026-05-04 17:30 | 41.24423 | -8.67737 | 224 ft | 18 kts | 169° |
| 2026-05-04 17:31 | 41.24255 | -8.67617 | 238 ft | 10 kts | 128° |
| 2026-05-04 17:31 | 41.24089 | -8.67547 | 238 ft | 18 kts | 169° |
| 2026-05-04 17:32 | 41.23705 | -8.67443 | 238 ft | 32 kts | 172° |
| 2026-05-04 17:33 | 41.23351 | -8.67306 | 242 ft | 8 kts | 95° |
| 2026-05-04 17:33 | 41.23359 | -8.67259 | 245 ft | 3 kts | 79° |
| 2026-05-04 17:34 | 41.23373 | -8.67161 | 245 ft | 6 kts | 79° |
| 2026-05-04 17:34 | 41.23375 | -8.67145 | 245 ft | 0 kts | 79° |